Annada, Missouri
Current Conditions -  °F | °C
As of 10:35 PM on Saturday 20 Dec 2014 (Local Time) from KPPQ Reporting Station
Overcast Overcast  
Wind Chill:   Ceiling: 3300
Heat Index:   Visibility: 7mi
Dew Point:   Wind: 6mph
Humidity: 88%   Direction: 150°SSE
Pressure: 30.23"   Gusts: NA
Location:  39.26°N, 90.83°W
Report Text: KPPQ 210435Z AUTO 15005KT 7SM OVC033 03/01 A3023 RMK AO2 T00300012
Loading
Personal Weather Stations






























Interactive Weather Map New forecast layout! Learn more

10-Day Weather Forecast

Advertisements
Track Severe Weather on mobile